sensor_id;sensor_type;location;lat;lon;timestamp;P1;durP1;ratioP1;P2;durP2;ratioP2
76437;SDS011;65273;43.198;0.118;2023-04-15T00:01:57;26.05;;;3.78;;
76437;SDS011;65273;43.198;0.118;2023-04-15T00:04:23;17.65;;;2.97;;
76437;SDS011;65273;43.198;0.118;2023-04-15T00:06:50;19.17;;;3.05;;
76437;SDS011;65273;43.198;0.118;2023-04-15T00:09:17;20.25;;;3.50;;
76437;SDS011;65273;43.198;0.118;2023-04-15T00:11:43;21.30;;;3.22;;
76437;SDS011;65273;43.198;0.118;2023-04-15T00:14:09;21.10;;;3.72;;
76437;SDS011;65273;43.198;0.118;2023-04-15T00:16:36;24.60;;;3.50;;
76437;SDS011;65273;43.198;0.118;2023-04-15T00:19:01;27.15;;;3.38;;
76437;SDS011;65273;43.198;0.118;2023-04-15T00:21:27;20.73;;;3.80;;
76437;SDS011;65273;43.198;0.118;2023-04-15T00:23:53;24.38;;;3.78;;
76437;SDS011;65273;43.198;0.118;2023-04-15T00:26:18;23.33;;;3.72;;
76437;SDS011;65273;43.198;0.118;2023-04-15T00:28:45;28.23;;;4.00;;
76437;SDS011;65273;43.198;0.118;2023-04-15T00:31:10;21.13;;;3.67;;
76437;SDS011;65273;43.198;0.118;2023-04-15T00:33:36;25.60;;;3.67;;
76437;SDS011;65273;43.198;0.118;2023-04-15T00:36:02;21.20;;;3.03;;
76437;SDS011;65273;43.198;0.118;2023-04-15T00:38:28;23.08;;;3.55;;
76437;SDS011;65273;43.198;0.118;2023-04-15T00:40:54;28.30;;;3.90;;
76437;SDS011;65273;43.198;0.118;2023-04-15T00:43:20;18.05;;;2.60;;
76437;SDS011;65273;43.198;0.118;2023-04-15T00:45:46;12.80;;;2.20;;
76437;SDS011;65273;43.198;0.118;2023-04-15T00:48:11;8.85;;;2.25;;
76437;SDS011;65273;43.198;0.118;2023-04-15T00:50:37;16.42;;;2.65;;
76437;SDS011;65273;43.198;0.118;2023-04-15T00:53:03;13.82;;;2.38;;
76437;SDS011;65273;43.198;0.118;2023-04-15T00:55:29;14.55;;;2.45;;
76437;SDS011;65273;43.198;0.118;2023-04-15T00:57:55;22.10;;;2.60;;
76437;SDS011;65273;43.198;0.118;2023-04-15T01:00:21;12.70;;;2.20;;
76437;SDS011;65273;43.198;0.118;2023-04-15T01:02:47;11.20;;;2.40;;
76437;SDS011;65273;43.198;0.118;2023-04-15T01:05:12;12.80;;;2.72;;
76437;SDS011;65273;43.198;0.118;2023-04-15T01:07:38;13.15;;;2.13;;
76437;SDS011;65273;43.198;0.118;2023-04-15T01:10:04;19.85;;;2.70;;
76437;SDS011;65273;43.198;0.118;2023-04-15T01:12:30;16.30;;;2.72;;
76437;SDS011;65273;43.198;0.118;2023-04-15T01:14:57;16.15;;;2.35;;
76437;SDS011;65273;43.198;0.118;2023-04-15T01:17:24;16.80;;;2.72;;
76437;SDS011;65273;43.198;0.118;2023-04-15T01:19:50;10.77;;;2.42;;
76437;SDS011;65273;43.198;0.118;2023-04-15T01:22:16;14.20;;;2.60;;
76437;SDS011;65273;43.198;0.118;2023-04-15T01:24:43;17.73;;;2.33;;
76437;SDS011;65273;43.198;0.118;2023-04-15T01:27:16;19.35;;;3.55;;
76437;SDS011;65273;43.198;0.118;2023-04-15T01:29:41;19.42;;;2.67;;
76437;SDS011;65273;43.198;0.118;2023-04-15T01:32:07;16.40;;;2.78;;
76437;SDS011;65273;43.198;0.118;2023-04-15T01:34:32;20.30;;;2.75;;
76437;SDS011;65273;43.198;0.118;2023-04-15T01:36:58;21.48;;;3.65;;
76437;SDS011;65273;43.198;0.118;2023-04-15T01:39:23;18.58;;;3.20;;
76437;SDS011;65273;43.198;0.118;2023-04-15T01:41:49;20.80;;;2.55;;
76437;SDS011;65273;43.198;0.118;2023-04-15T01:44:14;19.58;;;3.70;;
76437;SDS011;65273;43.198;0.118;2023-04-15T01:46:40;23.27;;;3.50;;
76437;SDS011;65273;43.198;0.118;2023-04-15T01:49:05;21.40;;;3.05;;
76437;SDS011;65273;43.198;0.118;2023-04-15T01:51:31;28.05;;;4.88;;
76437;SDS011;65273;43.198;0.118;2023-04-15T01:53:57;18.95;;;3.30;;
76437;SDS011;65273;43.198;0.118;2023-04-15T01:56:22;27.52;;;4.30;;
76437;SDS011;65273;43.198;0.118;2023-04-15T01:58:48;28.27;;;3.10;;
76437;SDS011;65273;43.198;0.118;2023-04-15T02:01:14;26.00;;;3.40;;
76437;SDS011;65273;43.198;0.118;2023-04-15T02:03:40;25.13;;;3.78;;
76437;SDS011;65273;43.198;0.118;2023-04-15T02:06:06;31.30;;;3.83;;
76437;SDS011;65273;43.198;0.118;2023-04-15T02:08:32;17.63;;;3.50;;
76437;SDS011;65273;43.198;0.118;2023-04-15T02:10:57;21.75;;;3.42;;
76437;SDS011;65273;43.198;0.118;2023-04-15T02:13:23;20.65;;;3.05;;
76437;SDS011;65273;43.198;0.118;2023-04-15T02:15:48;17.27;;;3.22;;
76437;SDS011;65273;43.198;0.118;2023-04-15T02:18:14;14.88;;;2.60;;
76437;SDS011;65273;43.198;0.118;2023-04-15T02:20:40;15.25;;;2.50;;
76437;SDS011;65273;43.198;0.118;2023-04-15T02:23:07;13.43;;;2.28;;
76437;SDS011;65273;43.198;0.118;2023-04-15T02:25:33;16.05;;;2.30;;
76437;SDS011;65273;43.198;0.118;2023-04-15T02:27:58;14.43;;;2.60;;
76437;SDS011;65273;43.198;0.118;2023-04-15T02:30:24;15.60;;;2.88;;
76437;SDS011;65273;43.198;0.118;2023-04-15T02:32:49;19.05;;;3.13;;
76437;SDS011;65273;43.198;0.118;2023-04-15T02:35:15;19.00;;;3.25;;
76437;SDS011;65273;43.198;0.118;2023-04-15T02:37:43;23.48;;;2.80;;
76437;SDS011;65273;43.198;0.118;2023-04-15T02:40:10;26.77;;;3.30;;
76437;SDS011;65273;43.198;0.118;2023-04-15T02:42:37;18.13;;;2.42;;
76437;SDS011;65273;43.198;0.118;2023-04-15T02:45:06;20.05;;;2.83;;
76437;SDS011;65273;43.198;0.118;2023-04-15T02:47:32;18.10;;;2.83;;
76437;SDS011;65273;43.198;0.118;2023-04-15T02:49:58;16.00;;;2.72;;
76437;SDS011;65273;43.198;0.118;2023-04-15T02:52:25;17.70;;;2.60;;
76437;SDS011;65273;43.198;0.118;2023-04-15T02:54:51;16.35;;;2.50;;
76437;SDS011;65273;43.198;0.118;2023-04-15T02:57:18;22.42;;;3.38;;
76437;SDS011;65273;43.198;0.118;2023-04-15T02:59:44;15.13;;;2.53;;
76437;SDS011;65273;43.198;0.118;2023-04-15T03:02:09;22.67;;;2.58;;
76437;SDS011;65273;43.198;0.118;2023-04-15T03:04:35;15.65;;;2.60;;
76437;SDS011;65273;43.198;0.118;2023-04-15T03:07:00;15.35;;;2.85;;
76437;SDS011;65273;43.198;0.118;2023-04-15T03:09:26;11.93;;;2.53;;
76437;SDS011;65273;43.198;0.118;2023-04-15T03:11:51;16.50;;;2.38;;
76437;SDS011;65273;43.198;0.118;2023-04-15T03:14:18;19.20;;;2.42;;
76437;SDS011;65273;43.198;0.118;2023-04-15T03:16:44;18.63;;;2.55;;
76437;SDS011;65273;43.198;0.118;2023-04-15T03:19:09;15.10;;;3.20;;
76437;SDS011;65273;43.198;0.118;2023-04-15T03:21:35;16.85;;;2.53;;
76437;SDS011;65273;43.198;0.118;2023-04-15T03:24:00;15.80;;;2.47;;
76437;SDS011;65273;43.198;0.118;2023-04-15T03:26:26;23.85;;;3.13;;
76437;SDS011;65273;43.198;0.118;2023-04-15T03:28:53;13.60;;;2.80;;
76437;SDS011;65273;43.198;0.118;2023-04-15T03:31:19;14.45;;;2.58;;
76437;SDS011;65273;43.198;0.118;2023-04-15T03:33:44;17.77;;;2.58;;
76437;SDS011;65273;43.198;0.118;2023-04-15T03:36:10;13.70;;;2.17;;
76437;SDS011;65273;43.198;0.118;2023-04-15T03:38:35;12.65;;;1.92;;
76437;SDS011;65273;43.198;0.118;2023-04-15T03:41:00;11.55;;;1.45;;
76437;SDS011;65273;43.198;0.118;2023-04-15T03:43:26;8.98;;;1.60;;
76437;SDS011;65273;43.198;0.118;2023-04-15T03:45:51;6.85;;;1.48;;
76437;SDS011;65273;43.198;0.118;2023-04-15T03:48:17;16.60;;;1.77;;
76437;SDS011;65273;43.198;0.118;2023-04-15T03:50:42;10.55;;;1.80;;
76437;SDS011;65273;43.198;0.118;2023-04-15T03:53:08;13.95;;;2.10;;
76437;SDS011;65273;43.198;0.118;2023-04-15T03:55:33;6.10;;;1.80;;
76437;SDS011;65273;43.198;0.118;2023-04-15T03:57:58;6.60;;;1.48;;
76437;SDS011;65273;43.198;0.118;2023-04-15T04:00:24;9.23;;;1.50;;
76437;SDS011;65273;43.198;0.118;2023-04-15T04:02:49;11.43;;;1.60;;
76437;SDS011;65273;43.198;0.118;2023-04-15T04:05:15;13.77;;;2.13;;
76437;SDS011;65273;43.198;0.118;2023-04-15T04:07:40;12.23;;;1.85;;
76437;SDS011;65273;43.198;0.118;2023-04-15T04:10:06;9.98;;;1.52;;
76437;SDS011;65273;43.198;0.118;2023-04-15T04:12:32;10.35;;;2.35;;
76437;SDS011;65273;43.198;0.118;2023-04-15T04:14:57;11.27;;;1.95;;
76437;SDS011;65273;43.198;0.118;2023-04-15T04:17:23;15.55;;;2.30;;
76437;SDS011;65273;43.198;0.118;2023-04-15T04:19:48;10.70;;;2.03;;
76437;SDS011;65273;43.198;0.118;2023-04-15T04:22:14;12.57;;;2.03;;
76437;SDS011;65273;43.198;0.118;2023-04-15T04:24:39;12.23;;;2.30;;
76437;SDS011;65273;43.198;0.118;2023-04-15T04:27:05;15.50;;;2.45;;
76437;SDS011;65273;43.198;0.118;2023-04-15T04:29:30;16.88;;;2.88;;
76437;SDS011;65273;43.198;0.118;2023-04-15T04:31:55;15.40;;;1.98;;
76437;SDS011;65273;43.198;0.118;2023-04-15T04:34:21;6.78;;;1.90;;
76437;SDS011;65273;43.198;0.118;2023-04-15T04:36:46;15.15;;;2.33;;
76437;SDS011;65273;43.198;0.118;2023-04-15T04:39:12;14.25;;;2.30;;
76437;SDS011;65273;43.198;0.118;2023-04-15T04:41:37;18.30;;;1.98;;
76437;SDS011;65273;43.198;0.118;2023-04-15T04:44:03;15.93;;;2.20;;
76437;SDS011;65273;43.198;0.118;2023-04-15T04:46:28;12.95;;;2.28;;
76437;SDS011;65273;43.198;0.118;2023-04-15T04:48:54;17.35;;;2.83;;
76437;SDS011;65273;43.198;0.118;2023-04-15T04:51:19;11.00;;;1.95;;
76437;SDS011;65273;43.198;0.118;2023-04-15T04:53:45;17.77;;;2.38;;
76437;SDS011;65273;43.198;0.118;2023-04-15T04:56:10;12.90;;;2.30;;
76437;SDS011;65273;43.198;0.118;2023-04-15T04:58:36;9.63;;;2.25;;
76437;SDS011;65273;43.198;0.118;2023-04-15T05:01:02;18.73;;;2.30;;
76437;SDS011;65273;43.198;0.118;2023-04-15T05:03:27;11.57;;;2.30;;
76437;SDS011;65273;43.198;0.118;2023-04-15T05:05:53;10.10;;;2.13;;
76437;SDS011;65273;43.198;0.118;2023-04-15T05:08:18;14.18;;;2.00;;
76437;SDS011;65273;43.198;0.118;2023-04-15T05:10:44;17.35;;;2.15;;
76437;SDS011;65273;43.198;0.118;2023-04-15T05:13:10;14.00;;;1.90;;
76437;SDS011;65273;43.198;0.118;2023-04-15T05:15:36;16.50;;;2.35;;
76437;SDS011;65273;43.198;0.118;2023-04-15T05:18:03;16.30;;;1.90;;
76437;SDS011;65273;43.198;0.118;2023-04-15T05:20:29;16.90;;;2.33;;
76437;SDS011;65273;43.198;0.118;2023-04-15T05:22:54;19.92;;;2.25;;
76437;SDS011;65273;43.198;0.118;2023-04-15T05:25:20;16.27;;;2.22;;
76437;SDS011;65273;43.198;0.118;2023-04-15T05:27:46;13.45;;;1.98;;
76437;SDS011;65273;43.198;0.118;2023-04-15T05:30:11;11.23;;;2.25;;
76437;SDS011;65273;43.198;0.118;2023-04-15T05:32:37;15.98;;;2.15;;
76437;SDS011;65273;43.198;0.118;2023-04-15T05:35:02;17.58;;;2.55;;
76437;SDS011;65273;43.198;0.118;2023-04-15T05:37:28;18.40;;;2.53;;
76437;SDS011;65273;43.198;0.118;2023-04-15T05:39:53;20.30;;;2.78;;
76437;SDS011;65273;43.198;0.118;2023-04-15T05:42:19;17.75;;;2.28;;
76437;SDS011;65273;43.198;0.118;2023-04-15T05:44:44;19.58;;;2.58;;
76437;SDS011;65273;43.198;0.118;2023-04-15T05:47:10;20.27;;;2.60;;
76437;SDS011;65273;43.198;0.118;2023-04-15T05:49:35;15.23;;;2.42;;
76437;SDS011;65273;43.198;0.118;2023-04-15T05:52:01;15.55;;;2.70;;
76437;SDS011;65273;43.198;0.118;2023-04-15T05:54:26;13.80;;;2.20;;
76437;SDS011;65273;43.198;0.118;2023-04-15T05:56:52;12.57;;;3.08;;
76437;SDS011;65273;43.198;0.118;2023-04-15T05:59:18;11.35;;;2.08;;
76437;SDS011;65273;43.198;0.118;2023-04-15T06:01:43;13.20;;;1.88;;
76437;SDS011;65273;43.198;0.118;2023-04-15T06:04:09;9.30;;;2.13;;
76437;SDS011;65273;43.198;0.118;2023-04-15T06:06:35;14.20;;;2.58;;
76437;SDS011;65273;43.198;0.118;2023-04-15T06:09:01;10.43;;;2.03;;
76437;SDS011;65273;43.198;0.118;2023-04-15T06:11:26;10.07;;;2.13;;
76437;SDS011;65273;43.198;0.118;2023-04-15T06:13:52;9.38;;;1.38;;
76437;SDS011;65273;43.198;0.118;2023-04-15T06:16:17;14.35;;;2.40;;
76437;SDS011;65273;43.198;0.118;2023-04-15T06:18:43;7.95;;;1.75;;
76437;SDS011;65273;43.198;0.118;2023-04-15T06:21:08;14.18;;;2.05;;
76437;SDS011;65273;43.198;0.118;2023-04-15T06:23:34;9.88;;;2.15;;
76437;SDS011;65273;43.198;0.118;2023-04-15T06:26:00;9.57;;;1.60;;
76437;SDS011;65273;43.198;0.118;2023-04-15T06:28:26;10.05;;;2.03;;
76437;SDS011;65273;43.198;0.118;2023-04-15T06:30:52;12.07;;;1.88;;
76437;SDS011;65273;43.198;0.118;2023-04-15T06:33:18;11.85;;;1.90;;
76437;SDS011;65273;43.198;0.118;2023-04-15T06:35:43;16.50;;;2.33;;
76437;SDS011;65273;43.198;0.118;2023-04-15T06:38:08;8.38;;;1.48;;
76437;SDS011;65273;43.198;0.118;2023-04-15T06:40:34;13.48;;;2.10;;
76437;SDS011;65273;43.198;0.118;2023-04-15T06:43:00;12.85;;;2.22;;
76437;SDS011;65273;43.198;0.118;2023-04-15T06:45:25;9.65;;;2.15;;
76437;SDS011;65273;43.198;0.118;2023-04-15T06:47:51;12.52;;;2.10;;
76437;SDS011;65273;43.198;0.118;2023-04-15T06:50:16;13.18;;;2.00;;
76437;SDS011;65273;43.198;0.118;2023-04-15T06:52:42;11.45;;;1.88;;
76437;SDS011;65273;43.198;0.118;2023-04-15T06:55:08;9.95;;;1.40;;
76437;SDS011;65273;43.198;0.118;2023-04-15T06:57:34;6.38;;;1.30;;
76437;SDS011;65273;43.198;0.118;2023-04-15T06:59:59;8.70;;;1.30;;
76437;SDS011;65273;43.198;0.118;2023-04-15T07:02:25;5.35;;;1.75;;
76437;SDS011;65273;43.198;0.118;2023-04-15T07:04:51;8.25;;;1.50;;
76437;SDS011;65273;43.198;0.118;2023-04-15T07:07:16;6.32;;;1.38;;
76437;SDS011;65273;43.198;0.118;2023-04-15T07:09:42;6.88;;;1.92;;
76437;SDS011;65273;43.198;0.118;2023-04-15T07:12:08;11.85;;;1.55;;
76437;SDS011;65273;43.198;0.118;2023-04-15T07:14:33;7.53;;;1.25;;
76437;SDS011;65273;43.198;0.118;2023-04-15T07:16:58;8.20;;;1.20;;
76437;SDS011;65273;43.198;0.118;2023-04-15T07:19:24;8.90;;;1.23;;
76437;SDS011;65273;43.198;0.118;2023-04-15T07:21:50;8.60;;;1.67;;
76437;SDS011;65273;43.198;0.118;2023-04-15T07:24:15;5.85;;;1.33;;
76437;SDS011;65273;43.198;0.118;2023-04-15T07:26:43;6.38;;;1.05;;
76437;SDS011;65273;43.198;0.118;2023-04-15T07:29:09;7.65;;;1.27;;
76437;SDS011;65273;43.198;0.118;2023-04-15T07:31:34;5.63;;;1.30;;
76437;SDS011;65273;43.198;0.118;2023-04-15T07:34:01;9.02;;;1.20;;
76437;SDS011;65273;43.198;0.118;2023-04-15T07:36:27;5.10;;;1.08;;
76437;SDS011;65273;43.198;0.118;2023-04-15T07:38:53;4.15;;;1.20;;
76437;SDS011;65273;43.198;0.118;2023-04-15T07:41:19;5.40;;;1.40;;
76437;SDS011;65273;43.198;0.118;2023-04-15T07:43:45;5.82;;;1.20;;
76437;SDS011;65273;43.198;0.118;2023-04-15T07:46:12;5.43;;;1.25;;
76437;SDS011;65273;43.198;0.118;2023-04-15T07:48:38;6.95;;;0.95;;
76437;SDS011;65273;43.198;0.118;2023-04-15T07:51:03;4.68;;;1.23;;
76437;SDS011;65273;43.198;0.118;2023-04-15T07:53:29;5.72;;;1.45;;
76437;SDS011;65273;43.198;0.118;2023-04-15T07:55:54;7.63;;;1.40;;
76437;SDS011;65273;43.198;0.118;2023-04-15T07:58:20;7.30;;;1.10;;
76437;SDS011;65273;43.198;0.118;2023-04-15T08:00:45;5.88;;;1.10;;
76437;SDS011;65273;43.198;0.118;2023-04-15T08:03:11;4.75;;;1.25;;
76437;SDS011;65273;43.198;0.118;2023-04-15T08:05:36;6.78;;;1.42;;
76437;SDS011;65273;43.198;0.118;2023-04-15T08:08:01;4.20;;;1.00;;
76437;SDS011;65273;43.198;0.118;2023-04-15T08:10:28;5.20;;;1.00;;
76437;SDS011;65273;43.198;0.118;2023-04-15T08:12:54;5.72;;;1.00;;
76437;SDS011;65273;43.198;0.118;2023-04-15T08:15:19;6.10;;;1.30;;
76437;SDS011;65273;43.198;0.118;2023-04-15T08:17:45;7.85;;;1.38;;
76437;SDS011;65273;43.198;0.118;2023-04-15T08:20:11;4.35;;;1.10;;
76437;SDS011;65273;43.198;0.118;2023-04-15T08:22:37;7.38;;;1.42;;
76437;SDS011;65273;43.198;0.118;2023-04-15T08:25:03;5.28;;;1.60;;
76437;SDS011;65273;43.198;0.118;2023-04-15T08:27:28;5.25;;;1.27;;
76437;SDS011;65273;43.198;0.118;2023-04-15T08:29:54;7.35;;;1.00;;
76437;SDS011;65273;43.198;0.118;2023-04-15T08:32:19;4.80;;;1.10;;
76437;SDS011;65273;43.198;0.118;2023-04-15T08:34:45;4.60;;;1.20;;
76437;SDS011;65273;43.198;0.118;2023-04-15T08:37:11;3.92;;;0.90;;
76437;SDS011;65273;43.198;0.118;2023-04-15T08:39:36;3.72;;;0.95;;
76437;SDS011;65273;43.198;0.118;2023-04-15T08:42:02;6.78;;;1.10;;
76437;SDS011;65273;43.198;0.118;2023-04-15T08:44:34;6.13;;;1.25;;
76437;SDS011;65273;43.198;0.118;2023-04-15T08:47:01;3.22;;;1.00;;
76437;SDS011;65273;43.198;0.118;2023-04-15T08:49:27;3.55;;;0.93;;
76437;SDS011;65273;43.198;0.118;2023-04-15T08:51:53;3.53;;;0.88;;
76437;SDS011;65273;43.198;0.118;2023-04-15T08:54:20;5.75;;;0.88;;
76437;SDS011;65273;43.198;0.118;2023-04-15T08:56:47;7.63;;;1.02;;
76437;SDS011;65273;43.198;0.118;2023-04-15T08:59:13;5.50;;;0.90;;
76437;SDS011;65273;43.198;0.118;2023-04-15T09:01:40;5.80;;;1.00;;
76437;SDS011;65273;43.198;0.118;2023-04-15T09:04:06;3.45;;;0.90;;
76437;SDS011;65273;43.198;0.118;2023-04-15T09:06:32;4.82;;;1.00;;
76437;SDS011;65273;43.198;0.118;2023-04-15T09:08:58;3.00;;;0.80;;
76437;SDS011;65273;43.198;0.118;2023-04-15T09:11:23;1.75;;;0.70;;
76437;SDS011;65273;43.198;0.118;2023-04-15T09:13:49;5.65;;;0.98;;
76437;SDS011;65273;43.198;0.118;2023-04-15T09:16:14;2.97;;;0.90;;
76437;SDS011;65273;43.198;0.118;2023-04-15T09:18:40;2.63;;;0.75;;
76437;SDS011;65273;43.198;0.118;2023-04-15T09:21:09;2.03;;;0.80;;
76437;SDS011;65273;43.198;0.118;2023-04-15T09:23:36;1.75;;;0.60;;
76437;SDS011;65273;43.198;0.118;2023-04-15T09:26:03;1.60;;;0.60;;
76437;SDS011;65273;43.198;0.118;2023-04-15T09:28:29;2.33;;;0.70;;
76437;SDS011;65273;43.198;0.118;2023-04-15T09:30:59;3.85;;;0.80;;
76437;SDS011;65273;43.198;0.118;2023-04-15T09:33:25;4.35;;;1.10;;
76437;SDS011;65273;43.198;0.118;2023-04-15T09:36:04;4.53;;;0.90;;
76437;SDS011;65273;43.198;0.118;2023-04-15T09:38:30;3.35;;;0.90;;
76437;SDS011;65273;43.198;0.118;2023-04-15T09:40:56;1.08;;;0.60;;
76437;SDS011;65273;43.198;0.118;2023-04-15T09:43:22;1.83;;;0.50;;
76437;SDS011;65273;43.198;0.118;2023-04-15T09:46:02;1.65;;;0.57;;
76437;SDS011;65273;43.198;0.118;2023-04-15T09:48:28;2.45;;;0.85;;
76437;SDS011;65273;43.198;0.118;2023-04-15T09:50:58;1.55;;;0.70;;
76437;SDS011;65273;43.198;0.118;2023-04-15T09:53:25;1.95;;;0.70;;
76437;SDS011;65273;43.198;0.118;2023-04-15T09:58:23;2.45;;;0.80;;
76437;SDS011;65273;43.198;0.118;2023-04-15T10:00:51;2.90;;;1.25;;
76437;SDS011;65273;43.198;0.118;2023-04-15T10:03:20;4.28;;;0.90;;
76437;SDS011;65273;43.198;0.118;2023-04-15T10:05:48;3.83;;;1.10;;
76437;SDS011;65273;43.198;0.118;2023-04-15T10:08:18;2.63;;;0.70;;
76437;SDS011;65273;43.198;0.118;2023-04-15T10:10:45;0.65;;;0.60;;
76437;SDS011;65273;43.198;0.118;2023-04-15T10:13:16;1.95;;;0.70;;
76437;SDS011;65273;43.198;0.118;2023-04-15T10:15:49;2.33;;;0.93;;
76437;SDS011;65273;43.198;0.118;2023-04-15T10:18:16;1.40;;;0.98;;
76437;SDS011;65273;43.198;0.118;2023-04-15T10:20:44;2.10;;;1.17;;
76437;SDS011;65273;43.198;0.118;2023-04-15T10:23:11;5.60;;;1.13;;
76437;SDS011;65273;43.198;0.118;2023-04-15T10:25:37;2.13;;;0.80;;
76437;SDS011;65273;43.198;0.118;2023-04-15T10:28:03;5.10;;;1.10;;
76437;SDS011;65273;43.198;0.118;2023-04-15T10:30:31;1.00;;;0.77;;
76437;SDS011;65273;43.198;0.118;2023-04-15T10:32:58;2.55;;;0.80;;
76437;SDS011;65273;43.198;0.118;2023-04-15T10:35:24;5.97;;;1.00;;
76437;SDS011;65273;43.198;0.118;2023-04-15T10:37:50;1.90;;;1.00;;
76437;SDS011;65273;43.198;0.118;2023-04-15T10:40:37;4.20;;;1.00;;
76437;SDS011;65273;43.198;0.118;2023-04-15T10:43:02;4.85;;;1.17;;
76437;SDS011;65273;43.198;0.118;2023-04-15T10:45:37;2.30;;;1.10;;
76437;SDS011;65273;43.198;0.118;2023-04-15T10:48:03;2.58;;;0.90;;
76437;SDS011;65273;43.198;0.118;2023-04-15T10:50:31;5.97;;;1.33;;
76437;SDS011;65273;43.198;0.118;2023-04-15T10:52:57;5.57;;;1.17;;
76437;SDS011;65273;43.198;0.118;2023-04-15T10:55:24;4.57;;;1.20;;
76437;SDS011;65273;43.198;0.118;2023-04-15T10:57:53;4.50;;;1.00;;
76437;SDS011;65273;43.198;0.118;2023-04-15T11:00:23;3.15;;;1.30;;
76437;SDS011;65273;43.198;0.118;2023-04-15T11:02:56;7.35;;;1.20;;
76437;SDS011;65273;43.198;0.118;2023-04-15T11:08:07;2.25;;;1.00;;
76437;SDS011;65273;43.198;0.118;2023-04-15T11:13:00;4.80;;;1.27;;
76437;SDS011;65273;43.198;0.118;2023-04-15T11:15:31;6.85;;;1.25;;
76437;SDS011;65273;43.198;0.118;2023-04-15T11:18:10;2.70;;;1.10;;
76437;SDS011;65273;43.198;0.118;2023-04-15T11:20:37;6.13;;;1.30;;
76437;SDS011;65273;43.198;0.118;2023-04-15T11:23:03;3.40;;;1.50;;
76437;SDS011;65273;43.198;0.118;2023-04-15T11:25:30;6.38;;;1.90;;
76437;SDS011;65273;43.198;0.118;2023-04-15T11:27:57;3.38;;;1.60;;
76437;SDS011;65273;43.198;0.118;2023-04-15T11:30:24;5.55;;;1.38;;
76437;SDS011;65273;43.198;0.118;2023-04-15T11:32:53;2.83;;;0.90;;
76437;SDS011;65273;43.198;0.118;2023-04-15T11:35:20;3.25;;;1.00;;
76437;SDS011;65273;43.198;0.118;2023-04-15T11:37:46;3.45;;;0.98;;
76437;SDS011;65273;43.198;0.118;2023-04-15T11:40:13;1.50;;;0.60;;
76437;SDS011;65273;43.198;0.118;2023-04-15T11:42:41;2.15;;;0.65;;
76437;SDS011;65273;43.198;0.118;2023-04-15T11:45:12;2.42;;;0.70;;
76437;SDS011;65273;43.198;0.118;2023-04-15T11:47:39;4.57;;;0.65;;
76437;SDS011;65273;43.198;0.118;2023-04-15T11:50:18;1.70;;;0.82;;
76437;SDS011;65273;43.198;0.118;2023-04-15T11:52:53;3.80;;;1.08;;
76437;SDS011;65273;43.198;0.118;2023-04-15T11:55:21;3.75;;;1.20;;
76437;SDS011;65273;43.198;0.118;2023-04-15T11:57:49;2.80;;;1.27;;
76437;SDS011;65273;43.198;0.118;2023-04-15T12:00:15;3.85;;;1.42;;
76437;SDS011;65273;43.198;0.118;2023-04-15T12:02:41;5.78;;;1.70;;
76437;SDS011;65273;43.198;0.118;2023-04-15T12:05:08;2.47;;;1.10;;
76437;SDS011;65273;43.198;0.118;2023-04-15T12:10:24;5.20;;;1.90;;
76437;SDS011;65273;43.198;0.118;2023-04-15T12:12:51;3.22;;;1.08;;
76437;SDS011;65273;43.198;0.118;2023-04-15T12:15:17;4.07;;;1.30;;
76437;SDS011;65273;43.198;0.118;2023-04-15T12:17:46;5.57;;;1.65;;
76437;SDS011;65273;43.198;0.118;2023-04-15T12:20:11;3.53;;;1.48;;
76437;SDS011;65273;43.198;0.118;2023-04-15T12:22:37;3.70;;;1.30;;
76437;SDS011;65273;43.198;0.118;2023-04-15T12:25:02;3.83;;;2.00;;
76437;SDS011;65273;43.198;0.118;2023-04-15T12:27:28;6.20;;;0.93;;
76437;SDS011;65273;43.198;0.118;2023-04-15T12:30:03;5.82;;;1.30;;
76437;SDS011;65273;43.198;0.118;2023-04-15T12:32:29;5.50;;;1.40;;
76437;SDS011;65273;43.198;0.118;2023-04-15T12:34:59;4.50;;;1.42;;
76437;SDS011;65273;43.198;0.118;2023-04-15T12:37:25;5.97;;;1.90;;
76437;SDS011;65273;43.198;0.118;2023-04-15T12:39:51;8.82;;;1.85;;
76437;SDS011;65273;43.198;0.118;2023-04-15T12:42:18;9.77;;;1.80;;
76437;SDS011;65273;43.198;0.118;2023-04-15T12:44:43;7.00;;;1.50;;
76437;SDS011;65273;43.198;0.118;2023-04-15T12:47:09;7.82;;;1.10;;
76437;SDS011;65273;43.198;0.118;2023-04-15T12:49:36;5.18;;;1.00;;
76437;SDS011;65273;43.198;0.118;2023-04-15T12:52:02;4.47;;;1.10;;
76437;SDS011;65273;43.198;0.118;2023-04-15T12:54:28;4.72;;;1.33;;
76437;SDS011;65273;43.198;0.118;2023-04-15T12:56:54;6.00;;;1.00;;
76437;SDS011;65273;43.198;0.118;2023-04-15T12:59:20;4.30;;;1.38;;
76437;SDS011;65273;43.198;0.118;2023-04-15T13:01:47;2.35;;;1.00;;
76437;SDS011;65273;43.198;0.118;2023-04-15T13:04:13;4.85;;;1.10;;
76437;SDS011;65273;43.198;0.118;2023-04-15T13:06:39;4.82;;;1.13;;
76437;SDS011;65273;43.198;0.118;2023-04-15T13:09:05;4.05;;;1.05;;
76437;SDS011;65273;43.198;0.118;2023-04-15T13:11:30;6.50;;;1.30;;
76437;SDS011;65273;43.198;0.118;2023-04-15T13:13:59;5.32;;;1.45;;
76437;SDS011;65273;43.198;0.118;2023-04-15T13:16:25;6.30;;;1.08;;
76437;SDS011;65273;43.198;0.118;2023-04-15T13:18:51;6.72;;;1.30;;
76437;SDS011;65273;43.198;0.118;2023-04-15T13:21:16;5.22;;;1.17;;
76437;SDS011;65273;43.198;0.118;2023-04-15T13:23:42;4.18;;;1.25;;
76437;SDS011;65273;43.198;0.118;2023-04-15T13:26:08;6.05;;;1.38;;
76437;SDS011;65273;43.198;0.118;2023-04-15T13:28:33;7.30;;;1.30;;
76437;SDS011;65273;43.198;0.118;2023-04-15T13:30:59;4.47;;;1.25;;
76437;SDS011;65273;43.198;0.118;2023-04-15T13:33:25;3.85;;;0.93;;
76437;SDS011;65273;43.198;0.118;2023-04-15T13:35:51;3.38;;;1.10;;
76437;SDS011;65273;43.198;0.118;2023-04-15T13:38:17;7.75;;;1.50;;
76437;SDS011;65273;43.198;0.118;2023-04-15T13:40:42;5.20;;;1.48;;
76437;SDS011;65273;43.198;0.118;2023-04-15T13:43:08;7.93;;;1.80;;
76437;SDS011;65273;43.198;0.118;2023-04-15T13:45:33;5.22;;;1.50;;
76437;SDS011;65273;43.198;0.118;2023-04-15T13:47:59;7.93;;;1.67;;
76437;SDS011;65273;43.198;0.118;2023-04-15T13:50:25;5.28;;;1.52;;
76437;SDS011;65273;43.198;0.118;2023-04-15T13:52:50;4.88;;;1.38;;
76437;SDS011;65273;43.198;0.118;2023-04-15T13:55:15;4.63;;;1.50;;
76437;SDS011;65273;43.198;0.118;2023-04-15T13:57:41;6.38;;;1.25;;
76437;SDS011;65273;43.198;0.118;2023-04-15T14:00:07;5.90;;;1.80;;
76437;SDS011;65273;43.198;0.118;2023-04-15T14:02:33;6.95;;;1.80;;
76437;SDS011;65273;43.198;0.118;2023-04-15T14:04:58;8.48;;;1.50;;
76437;SDS011;65273;43.198;0.118;2023-04-15T14:07:24;4.43;;;1.55;;
76437;SDS011;65273;43.198;0.118;2023-04-15T14:09:49;7.45;;;1.63;;
76437;SDS011;65273;43.198;0.118;2023-04-15T14:12:15;7.75;;;1.83;;
76437;SDS011;65273;43.198;0.118;2023-04-15T14:14:40;8.13;;;1.30;;
76437;SDS011;65273;43.198;0.118;2023-04-15T14:17:06;5.55;;;1.60;;
76437;SDS011;65273;43.198;0.118;2023-04-15T14:19:32;5.03;;;1.17;;
76437;SDS011;65273;43.198;0.118;2023-04-15T14:21:59;6.20;;;1.15;;
76437;SDS011;65273;43.198;0.118;2023-04-15T14:24:24;4.45;;;1.13;;
76437;SDS011;65273;43.198;0.118;2023-04-15T14:26:50;8.52;;;1.58;;
76437;SDS011;65273;43.198;0.118;2023-04-15T14:29:15;5.35;;;1.30;;
76437;SDS011;65273;43.198;0.118;2023-04-15T14:31:41;8.00;;;1.42;;
76437;SDS011;65273;43.198;0.118;2023-04-15T14:34:09;2.90;;;1.48;;
76437;SDS011;65273;43.198;0.118;2023-04-15T14:36:34;5.88;;;1.50;;
76437;SDS011;65273;43.198;0.118;2023-04-15T14:39:00;10.60;;;1.67;;
76437;SDS011;65273;43.198;0.118;2023-04-15T14:41:25;4.72;;;1.20;;
76437;SDS011;65273;43.198;0.118;2023-04-15T14:43:51;5.05;;;1.35;;
76437;SDS011;65273;43.198;0.118;2023-04-15T14:46:16;4.10;;;1.30;;
76437;SDS011;65273;43.198;0.118;2023-04-15T14:48:42;4.22;;;1.23;;